Portada
Imágenes satélite Pronóstico 15 díasClimaPredicción Marítima Ciclones Rayo AeropuertosFAQ Noticias Acerca
El tiempo : Europa África América del Norte América del Sur Asia Australia-Oceanía Otros
Idiomas Contacto

Viru-Viru, Bolivia

latitud: 17-38S, longitud: 063-08W, altitud: 373 m


METAR: SLVR 220400Z 18006KT 8000 SCT070 BKN200 26/18 Q1014
TAF: SLVR 212230Z 2200/2224 18005KT 8000 NSC TX36/2220Z TN22/2211Z BECMG 2214/2216 33010KT SCT020 BECMG 2222/2224 34005KT

Hora: 00:44 (04:44 UTC)

Observación

El informe se hizo hace 44 minutos, a las 04:00 UTC
Viento 6 kt del sur
Temperatura 26°C
Humedad 61%
Presión 1014 hPa
Visibilidad: 8000 m
Nubes dispersas a una altura de 7000 ft
Cielo nuboso a una altura de 20000 ft

Cambiar las unidades

Pronóstico

El informe se hizo hace 6 horas y 14 minutos, a las 22:30 UTC
Pronóstico válido del 22 a las 00 UTC al 22 a las 24 UTC
Viento 5 kt del sur
Visibilidad: 8000 m
Evolucionando progresivamente
del 22 a las 14 UTC al 22 a las 16 UTC
Viento 10 kt del norte-noroeste
Nubes dispersas a una altura de 2000 ft
Evolucionando progresivamente
del 22 a las 22 UTC al 22 a las 24 UTC
Viento 5 kt del norte-noroeste
La información que se ofrece en estas páginas está sujeta a una cláusula de exención de responsabilidad
El tiempo : Europa África América del Norte América del Sur Asia Australia-Oceanía Otros
Imágenes satélite Pronóstico 15 díasClimaPredicción Marítima Ciclones Rayo AeropuertosFAQ Idiomas Contacto Noticias Acerca